createdAt,value
2022-12-27T00:00:00.792Z,959.17
2022-12-27T00:01:00.957Z,959.19
2022-12-27T00:02:00.828Z,959.13
2022-12-27T00:03:00.799Z,959.15
2022-12-27T00:04:00.718Z,959.23
2022-12-27T00:05:00.722Z,959.24
2022-12-27T00:06:00.691Z,959.29
2022-12-27T00:07:00.705Z,959.30
2022-12-27T00:08:00.667Z,959.29
2022-12-27T00:09:00.689Z,959.32
2022-12-27T00:10:00.658Z,959.36
2022-12-27T00:11:00.632Z,959.45
2022-12-27T00:12:00.610Z,959.47
2022-12-27T00:13:00.607Z,959.46
2022-12-27T00:14:00.610Z,959.47
2022-12-27T00:15:00.591Z,959.51
2022-12-27T00:16:00.617Z,959.51
2022-12-27T00:17:00.553Z,959.48
2022-12-27T00:18:00.562Z,959.44
2022-12-27T00:19:00.535Z,959.52
2022-12-27T00:20:04.033Z,959.58
2022-12-27T00:21:00.524Z,959.61
2022-12-27T00:22:00.553Z,959.61
2022-12-27T00:23:00.526Z,959.63
2022-12-27T00:24:00.441Z,959.69
2022-12-27T00:25:00.487Z,959.77
2022-12-27T00:26:00.416Z,959.80
2022-12-27T00:27:00.447Z,959.81
2022-12-27T00:28:00.409Z,959.86
2022-12-27T00:29:00.399Z,959.86
2022-12-27T00:30:00.395Z,959.86
2022-12-27T00:31:00.379Z,959.83
2022-12-27T00:32:00.496Z,959.80
2022-12-27T00:33:00.343Z,959.77
2022-12-27T00:34:00.332Z,959.80
2022-12-27T00:35:00.347Z,959.83
2022-12-27T00:36:00.313Z,959.90
2022-12-27T00:37:00.286Z,959.88
2022-12-27T00:38:00.266Z,959.89
2022-12-27T00:39:00.262Z,959.84
2022-12-27T00:40:00.271Z,959.83
2022-12-27T00:41:00.241Z,959.82
2022-12-27T00:42:00.214Z,959.78
2022-12-27T00:43:00.221Z,959.78
2022-12-27T00:44:00.193Z,959.75
2022-12-27T00:45:00.223Z,959.81
2022-12-27T00:46:00.320Z,959.83
2022-12-27T00:47:00.165Z,959.76
2022-12-27T00:48:00.143Z,959.82
2022-12-27T00:49:00.140Z,959.86
2022-12-27T00:50:00.133Z,959.80
2022-12-27T00:51:00.110Z,959.80
2022-12-27T00:52:00.093Z,959.85
2022-12-27T00:53:00.125Z,959.98
2022-12-27T00:54:00.051Z,960.03
2022-12-27T00:55:00.057Z,959.99
2022-12-27T00:56:00.051Z,960.05
2022-12-27T00:57:00.061Z,960.06
2022-12-27T00:57:59.999Z,960.07
2022-12-27T00:59:00.008Z,960.14
2022-12-27T01:00:04.704Z,960.15
2022-12-27T01:01:00.038Z,960.14
2022-12-27T01:02:00.070Z,960.15
2022-12-27T01:02:59.948Z,960.18
2022-12-27T01:03:59.990Z,960.17
2022-12-27T01:04:59.918Z,960.23
2022-12-27T01:05:59.936Z,960.32
2022-12-27T01:06:59.936Z,960.30
2022-12-27T01:07:59.884Z,960.27
2022-12-27T01:08:59.863Z,960.15
2022-12-27T01:09:59.846Z,960.13
2022-12-27T01:10:59.837Z,960.09
2022-12-27T01:11:59.815Z,960.11
2022-12-27T01:12:59.840Z,960.10
2022-12-27T01:13:59.820Z,960.04
2022-12-27T01:14:59.797Z,959.98
2022-12-27T01:15:59.766Z,959.95
2022-12-27T01:16:59.845Z,959.91
2022-12-27T01:17:59.761Z,959.97
2022-12-27T01:18:59.763Z,959.98
2022-12-27T01:19:59.709Z,960.06
2022-12-27T01:20:59.708Z,960.10
2022-12-27T01:21:59.681Z,960.13
2022-12-27T01:22:59.691Z,960.16
2022-12-27T01:23:59.687Z,960.16
2022-12-27T01:24:59.730Z,960.17
2022-12-27T01:25:59.633Z,960.20
2022-12-27T01:26:59.631Z,960.18
2022-12-27T01:27:59.602Z,960.18
2022-12-27T01:28:59.598Z,960.16
2022-12-27T01:29:59.594Z,960.22
2022-12-27T01:30:59.593Z,960.32
2022-12-27T01:31:59.621Z,960.34
2022-12-27T01:32:59.579Z,960.40
2022-12-27T01:33:59.562Z,960.35
2022-12-27T01:34:59.520Z,960.33
2022-12-27T01:35:59.495Z,960.30
2022-12-27T01:36:59.512Z,960.32
2022-12-27T01:37:59.507Z,960.37
2022-12-27T01:38:59.473Z,960.47
2022-12-27T01:39:59.454Z,960.46
2022-12-27T01:40:59.441Z,960.53
2022-12-27T01:41:59.438Z,960.62
2022-12-27T01:42:59.438Z,960.64
2022-12-27T01:43:59.420Z,960.67
2022-12-27T01:44:59.389Z,960.67
2022-12-27T01:45:59.436Z,960.71
2022-12-27T01:46:59.404Z,960.74
2022-12-27T01:47:59.346Z,960.83
2022-12-27T01:48:59.333Z,960.84
2022-12-27T01:49:59.337Z,960.82
2022-12-27T01:50:59.307Z,960.82
2022-12-27T01:51:59.287Z,960.85
2022-12-27T01:52:59.292Z,960.88
2022-12-27T01:53:59.263Z,960.95
2022-12-27T01:54:59.299Z,961.01
2022-12-27T01:55:59.259Z,961.03
2022-12-27T01:56:59.217Z,961.07
2022-12-27T01:57:59.218Z,961.05
2022-12-27T01:58:59.235Z,961.04
2022-12-27T01:59:59.183Z,961.05
2022-12-27T02:00:59.250Z,961.07
2022-12-27T02:01:59.398Z,961.08
2022-12-27T02:02:59.285Z,961.10
2022-12-27T02:03:59.162Z,961.08
2022-12-27T02:04:59.146Z,961.14
2022-12-27T02:05:59.119Z,961.09
2022-12-27T02:06:59.099Z,961.09
2022-12-27T02:07:59.115Z,961.08
2022-12-27T02:08:59.081Z,961.07
2022-12-27T02:09:59.250Z,961.06
2022-12-27T02:10:59.044Z,961.13
2022-12-27T02:11:59.046Z,961.18
2022-12-27T02:12:59.065Z,961.23
2022-12-27T02:13:59.035Z,961.26
2022-12-27T02:14:58.999Z,961.34
2022-12-27T02:15:58.995Z,961.36
2022-12-27T02:16:59.172Z,961.38
2022-12-27T02:17:58.948Z,961.40
2022-12-27T02:18:58.935Z,961.35
2022-12-27T02:19:58.942Z,961.34
2022-12-27T02:20:58.907Z,961.37
2022-12-27T02:21:58.900Z,961.34
2022-12-27T02:22:58.889Z,961.31
2022-12-27T02:23:58.862Z,961.44
2022-12-27T02:24:58.894Z,961.49
2022-12-27T02:25:58.865Z,961.46
2022-12-27T02:26:58.886Z,961.45
2022-12-27T02:27:58.813Z,961.41
2022-12-27T02:28:58.895Z,961.36
2022-12-27T02:29:58.820Z,961.40
2022-12-27T02:30:58.816Z,961.45
2022-12-27T02:31:58.799Z,961.44
2022-12-27T02:32:58.755Z,961.46
2022-12-27T02:33:58.777Z,961.49
2022-12-27T02:34:58.736Z,961.50
2022-12-27T02:35:58.709Z,961.52
2022-12-27T02:36:58.705Z,961.55
2022-12-27T02:37:58.684Z,961.53
2022-12-27T02:38:58.703Z,961.51
2022-12-27T02:39:58.661Z,961.55
2022-12-27T02:40:58.690Z,961.54
2022-12-27T02:41:58.655Z,961.59
2022-12-27T02:42:58.624Z,961.58
2022-12-27T02:43:58.598Z,961.55
2022-12-27T02:44:58.624Z,961.55
2022-12-27T02:45:58.621Z,961.51
2022-12-27T02:46:58.575Z,961.50
2022-12-27T02:47:58.549Z,961.52
2022-12-27T02:48:58.570Z,961.53
2022-12-27T02:49:58.548Z,961.48
2022-12-27T02:50:58.519Z,961.44
2022-12-27T02:51:58.507Z,961.41
2022-12-27T02:52:58.518Z,961.47
2022-12-27T02:53:58.475Z,961.45
2022-12-27T02:54:58.462Z,961.43
2022-12-27T02:55:58.451Z,961.45
2022-12-27T02:56:58.419Z,961.49
2022-12-27T02:57:58.459Z,961.52
2022-12-27T02:58:58.396Z,961.52
2022-12-27T02:59:58.398Z,961.46
2022-12-27T03:00:58.421Z,961.45
2022-12-27T03:01:58.470Z,961.43
2022-12-27T03:02:58.455Z,961.47
2022-12-27T03:03:58.392Z,961.51
2022-12-27T03:04:58.332Z,961.47
2022-12-27T03:05:58.328Z,961.46
2022-12-27T03:06:58.338Z,961.48
2022-12-27T03:07:58.289Z,961.53
2022-12-27T03:08:58.275Z,961.58
2022-12-27T03:09:58.271Z,961.58
2022-12-27T03:10:58.246Z,961.60
2022-12-27T03:11:58.275Z,961.63
2022-12-27T03:12:58.244Z,961.66
2022-12-27T03:13:58.219Z,961.64
2022-12-27T03:14:58.187Z,961.68
2022-12-27T03:15:58.295Z,961.69
2022-12-27T03:16:58.168Z,961.70
2022-12-27T03:17:58.187Z,961.71
2022-12-27T03:18:58.174Z,961.70
2022-12-27T03:19:58.137Z,961.80
2022-12-27T03:20:58.119Z,961.82
2022-12-27T03:21:58.113Z,961.87
2022-12-27T03:22:58.088Z,961.91
2022-12-27T03:23:58.105Z,961.92
2022-12-27T03:24:58.057Z,961.91
2022-12-27T03:25:58.056Z,961.92
2022-12-27T03:26:58.069Z,961.92
2022-12-27T03:27:58.023Z,961.89
2022-12-27T03:28:58.039Z,961.86
2022-12-27T03:29:58.015Z,961.83
2022-12-27T03:30:58.126Z,961.91
2022-12-27T03:31:58.006Z,961.90
2022-12-27T03:32:57.992Z,961.96
2022-12-27T03:33:57.957Z,961.93
2022-12-27T03:34:57.924Z,962.08
2022-12-27T03:35:57.953Z,962.12
2022-12-27T03:36:57.908Z,962.17
2022-12-27T03:37:57.923Z,962.24
2022-12-27T03:38:57.867Z,962.27
2022-12-27T03:39:57.864Z,962.27
2022-12-27T03:40:57.841Z,962.30
2022-12-27T03:41:57.845Z,962.33
2022-12-27T03:42:57.844Z,962.25
2022-12-27T03:43:57.820Z,962.22
2022-12-27T03:44:57.836Z,962.20
2022-12-27T03:45:57.880Z,962.25
2022-12-27T03:46:57.772Z,962.28
2022-12-27T03:47:57.769Z,962.36
2022-12-27T03:48:57.752Z,962.36
2022-12-27T03:49:57.754Z,962.40
2022-12-27T03:50:57.749Z,962.45
2022-12-27T03:51:57.714Z,962.48
2022-12-27T03:52:57.696Z,962.50
2022-12-27T03:53:57.728Z,962.55
2022-12-27T03:54:57.664Z,962.56
2022-12-27T03:55:57.684Z,962.60
2022-12-27T03:56:57.641Z,962.59
2022-12-27T03:57:57.635Z,962.53
2022-12-27T03:58:57.610Z,962.57
2022-12-27T03:59:57.660Z,962.66
2022-12-27T04:00:57.580Z,962.64
2022-12-27T04:01:57.724Z,962.60
2022-12-27T04:02:57.732Z,962.57
2022-12-27T04:03:57.565Z,962.55
2022-12-27T04:04:57.530Z,962.57
2022-12-27T04:05:57.521Z,962.64
2022-12-27T04:06:57.527Z,962.66
2022-12-27T04:07:57.500Z,962.69
2022-12-27T04:08:57.496Z,962.69
2022-12-27T04:09:57.475Z,962.75
2022-12-27T04:10:57.506Z,962.72
2022-12-27T04:11:57.445Z,962.72
2022-12-27T04:12:57.503Z,962.77
2022-12-27T04:13:57.416Z,962.81
2022-12-27T04:14:57.404Z,962.81
2022-12-27T04:15:57.461Z,962.76
2022-12-27T04:16:57.406Z,962.80
2022-12-27T04:17:57.398Z,962.86
2022-12-27T04:18:57.393Z,962.84
2022-12-27T04:19:57.337Z,962.79
2022-12-27T04:20:57.318Z,962.80
2022-12-27T04:21:57.326Z,962.78
2022-12-27T04:22:57.295Z,962.83
2022-12-27T04:23:57.311Z,962.80
2022-12-27T04:24:57.269Z,962.74
2022-12-27T04:25:57.260Z,962.80
2022-12-27T04:26:57.250Z,962.91
2022-12-27T04:27:57.245Z,962.87
2022-12-27T04:28:57.235Z,962.77
2022-12-27T04:29:57.218Z,962.75
2022-12-27T04:30:57.225Z,962.81
2022-12-27T04:31:57.195Z,962.89
2022-12-27T04:32:57.180Z,962.90
2022-12-27T04:33:57.143Z,962.87
2022-12-27T04:34:57.130Z,962.86
2022-12-27T04:36:01.407Z,962.91
2022-12-27T04:36:57.121Z,962.88
2022-12-27T04:37:57.124Z,962.89
2022-12-27T04:38:57.125Z,962.87
2022-12-27T04:39:57.082Z,962.98
2022-12-27T04:40:57.082Z,962.92
2022-12-27T04:41:57.053Z,962.98
2022-12-27T04:42:57.023Z,962.97
2022-12-27T04:43:57.047Z,963.01
2022-12-27T04:44:57.010Z,963.00
2022-12-27T04:45:57.024Z,962.97
2022-12-27T04:46:56.995Z,962.99
2022-12-27T04:47:56.965Z,962.97
2022-12-27T04:48:56.984Z,963.01
2022-12-27T04:49:56.940Z,963.09
2022-12-27T04:50:56.930Z,963.08
2022-12-27T04:51:56.918Z,963.11
2022-12-27T04:52:56.925Z,963.22
2022-12-27T04:53:56.895Z,963.18
2022-12-27T04:54:56.887Z,963.21
2022-12-27T04:55:56.865Z,963.19
2022-12-27T04:56:56.868Z,963.21
2022-12-27T04:57:56.846Z,963.23
2022-12-27T04:58:56.848Z,963.29
2022-12-27T04:59:56.810Z,963.28
2022-12-27T05:00:56.831Z,963.32
2022-12-27T05:01:56.956Z,963.39
2022-12-27T05:02:56.887Z,963.44
2022-12-27T05:03:56.764Z,963.55
2022-12-27T05:04:56.772Z,963.59
2022-12-27T05:05:56.806Z,963.70
2022-12-27T05:06:56.715Z,963.79
2022-12-27T05:07:56.703Z,963.82
2022-12-27T05:08:56.701Z,963.87
2022-12-27T05:09:56.695Z,963.88
2022-12-27T05:10:56.678Z,963.87
2022-12-27T05:11:56.655Z,963.96
2022-12-27T05:12:56.630Z,963.91
2022-12-27T05:13:56.658Z,963.97
2022-12-27T05:14:56.640Z,964.03
2022-12-27T05:15:56.707Z,964.04
2022-12-27T05:16:56.643Z,964.04
2022-12-27T05:17:56.588Z,964.03
2022-12-27T05:18:56.556Z,964.02
2022-12-27T05:19:56.556Z,964.02
2022-12-27T05:20:56.560Z,964.00
2022-12-27T05:21:56.534Z,964.03
2022-12-27T05:22:56.537Z,964.01
2022-12-27T05:24:01.777Z,964.05
2022-12-27T05:24:56.472Z,964.04
2022-12-27T05:25:56.468Z,964.08
2022-12-27T05:26:56.492Z,964.08
2022-12-27T05:27:56.481Z,964.12
2022-12-27T05:28:56.429Z,964.19
2022-12-27T05:29:56.445Z,964.10
2022-12-27T05:30:56.422Z,964.16
2022-12-27T05:31:56.397Z,964.26
2022-12-27T05:32:56.362Z,964.24
2022-12-27T05:33:56.364Z,964.11
2022-12-27T05:34:56.367Z,964.18
2022-12-27T05:35:56.337Z,964.29
2022-12-27T05:36:56.354Z,964.32
2022-12-27T05:37:56.349Z,964.33
2022-12-27T05:38:56.287Z,964.32
2022-12-27T05:39:56.276Z,964.27
2022-12-27T05:40:56.285Z,964.24
2022-12-27T05:41:56.255Z,964.24
2022-12-27T05:42:56.239Z,964.25
2022-12-27T05:43:56.238Z,964.28
2022-12-27T05:44:56.221Z,964.31
2022-12-27T05:45:56.233Z,964.23
2022-12-27T05:46:56.246Z,964.24
2022-12-27T05:47:56.188Z,964.33
2022-12-27T05:48:56.150Z,964.30
2022-12-27T05:49:56.193Z,964.32
2022-12-27T05:50:56.132Z,964.33
2022-12-27T05:51:56.125Z,964.41
2022-12-27T05:52:56.110Z,964.40
2022-12-27T05:53:56.126Z,964.37
2022-12-27T05:54:56.083Z,964.36
2022-12-27T05:55:56.110Z,964.42
2022-12-27T05:56:56.046Z,964.43
2022-12-27T05:57:56.047Z,964.47
2022-12-27T05:58:56.043Z,964.52
2022-12-27T05:59:56.019Z,964.52
2022-12-27T06:00:56.019Z,964.45
2022-12-27T06:01:56.170Z,964.45
2022-12-27T06:02:56.097Z,964.45
2022-12-27T06:03:55.978Z,964.48
2022-12-27T06:04:55.937Z,964.51
2022-12-27T06:05:55.927Z,964.54
2022-12-27T06:06:55.955Z,964.53
2022-12-27T06:07:55.911Z,964.47
2022-12-27T06:08:55.899Z,964.52
2022-12-27T06:09:55.880Z,964.52
2022-12-27T06:10:55.891Z,964.53
2022-12-27T06:11:55.891Z,964.55
2022-12-27T06:12:55.841Z,964.50
2022-12-27T06:13:55.831Z,964.43
2022-12-27T06:14:55.817Z,964.52
2022-12-27T06:15:55.837Z,964.54
2022-12-27T06:16:55.803Z,964.59
2022-12-27T06:17:55.776Z,964.69
2022-12-27T06:18:55.784Z,964.73
2022-12-27T06:19:57.421Z,964.73
2022-12-27T06:20:55.805Z,964.72
2022-12-27T06:21:55.718Z,964.70
2022-12-27T06:22:55.726Z,964.66
2022-12-27T06:23:55.720Z,964.59
2022-12-27T06:24:55.722Z,964.60
2022-12-27T06:25:55.708Z,964.70
2022-12-27T06:26:55.689Z,964.70
2022-12-27T06:27:55.677Z,964.67
2022-12-27T06:28:55.624Z,964.63
2022-12-27T06:29:55.632Z,964.61
2022-12-27T06:30:55.603Z,964.55
2022-12-27T06:31:55.677Z,964.52
2022-12-27T06:32:55.596Z,964.52
2022-12-27T06:33:55.576Z,964.51
2022-12-27T06:34:55.581Z,964.50
2022-12-27T06:35:55.552Z,964.56
2022-12-27T06:36:55.562Z,964.59
2022-12-27T06:37:55.535Z,964.62
2022-12-27T06:38:55.520Z,964.65
2022-12-27T06:39:55.520Z,964.66
2022-12-27T06:40:55.494Z,964.61
2022-12-27T06:41:55.454Z,964.63
2022-12-27T06:42:55.479Z,964.58
2022-12-27T06:43:55.471Z,964.58
2022-12-27T06:44:55.437Z,964.57
2022-12-27T06:45:55.459Z,964.55
2022-12-27T06:46:55.409Z,964.56
2022-12-27T06:47:55.417Z,964.57
2022-12-27T06:48:55.409Z,964.56
2022-12-27T06:49:55.340Z,964.51
2022-12-27T06:50:55.372Z,964.56
2022-12-27T06:51:59.571Z,964.52
2022-12-27T06:52:55.321Z,964.47
2022-12-27T06:53:55.325Z,964.52
2022-12-27T06:54:55.368Z,964.55
2022-12-27T06:55:55.274Z,964.62
2022-12-27T06:56:55.261Z,964.61
2022-12-27T06:57:55.246Z,964.65
2022-12-27T06:58:55.257Z,964.67
2022-12-27T06:59:55.246Z,964.79
2022-12-27T07:00:55.292Z,964.75
2022-12-27T07:01:55.414Z,964.79
2022-12-27T07:02:55.373Z,964.76
2022-12-27T07:03:55.165Z,964.74
2022-12-27T07:04:55.170Z,964.82
2022-12-27T07:05:55.142Z,964.86
2022-12-27T07:06:55.178Z,964.88
2022-12-27T07:07:55.125Z,964.90
2022-12-27T07:08:55.120Z,964.91
2022-12-27T07:09:55.113Z,964.94
2022-12-27T07:10:55.113Z,964.97
2022-12-27T07:11:55.071Z,964.96
2022-12-27T07:12:55.058Z,964.97
2022-12-27T07:13:55.041Z,964.98
2022-12-27T07:14:55.061Z,965.01
2022-12-27T07:15:55.014Z,964.97
2022-12-27T07:16:55.099Z,964.96
2022-12-27T07:17:54.984Z,965.02
2022-12-27T07:18:55.030Z,965.03
2022-12-27T07:19:54.977Z,965.04
2022-12-27T07:20:54.953Z,965.05
2022-12-27T07:21:54.931Z,965.08
2022-12-27T07:22:54.952Z,965.03
2022-12-27T07:23:54.903Z,965.00
2022-12-27T07:24:54.918Z,964.96
2022-12-27T07:25:54.878Z,964.99
2022-12-27T07:26:54.902Z,964.99
2022-12-27T07:27:54.858Z,965.00
2022-12-27T07:28:54.862Z,965.00
2022-12-27T07:29:54.860Z,965.04
2022-12-27T07:30:54.815Z,965.09
2022-12-27T07:31:54.845Z,965.01
2022-12-27T07:32:54.795Z,964.98
2022-12-27T07:33:54.776Z,964.95
2022-12-27T07:34:54.788Z,964.95
2022-12-27T07:35:54.779Z,964.97
2022-12-27T07:36:54.751Z,964.99
2022-12-27T07:37:54.759Z,965.07
2022-12-27T07:38:54.714Z,965.05
2022-12-27T07:39:54.695Z,965.07
2022-12-27T07:40:54.683Z,965.06
2022-12-27T07:41:54.694Z,965.02
2022-12-27T07:42:54.662Z,965.02
2022-12-27T07:43:54.643Z,964.98
2022-12-27T07:44:54.643Z,964.89
2022-12-27T07:45:54.645Z,964.92
2022-12-27T07:46:54.636Z,964.84
2022-12-27T07:47:54.594Z,964.87
2022-12-27T07:48:54.597Z,964.87
2022-12-27T07:49:54.602Z,964.90
2022-12-27T07:50:54.572Z,964.90
2022-12-27T07:51:54.528Z,964.91
2022-12-27T07:52:54.534Z,964.90
2022-12-27T07:53:54.549Z,964.90
2022-12-27T07:54:54.499Z,964.91
2022-12-27T07:55:54.482Z,964.92
2022-12-27T07:56:54.477Z,964.90
2022-12-27T07:57:54.488Z,964.91
2022-12-27T07:58:54.476Z,964.87
2022-12-27T07:59:54.425Z,964.86
2022-12-27T08:00:54.503Z,964.90
2022-12-27T08:01:54.666Z,964.98
2022-12-27T08:02:54.424Z,964.99
2022-12-27T08:03:54.396Z,964.97
2022-12-27T08:04:54.374Z,964.98
2022-12-27T08:05:54.355Z,964.99
2022-12-27T08:06:54.363Z,965.02
2022-12-27T08:07:54.342Z,964.96
2022-12-27T08:08:54.321Z,964.93
2022-12-27T08:09:54.291Z,964.93
2022-12-27T08:10:54.360Z,964.92
2022-12-27T08:11:54.276Z,964.92
2022-12-27T08:12:54.267Z,964.96
2022-12-27T08:13:54.260Z,964.97
2022-12-27T08:14:54.267Z,964.97
2022-12-27T08:15:54.227Z,964.91
2022-12-27T08:16:54.259Z,964.95
2022-12-27T08:17:54.209Z,964.95
2022-12-27T08:18:54.200Z,964.92
2022-12-27T08:19:54.196Z,964.87
2022-12-27T08:20:54.159Z,964.82
2022-12-27T08:21:54.147Z,964.78
2022-12-27T08:22:54.145Z,964.83
2022-12-27T08:23:54.116Z,964.91
2022-12-27T08:24:54.139Z,964.92
2022-12-27T08:25:54.118Z,964.90
2022-12-27T08:26:54.088Z,964.83
2022-12-27T08:27:54.057Z,964.85
2022-12-27T08:28:54.082Z,964.87
2022-12-27T08:29:54.049Z,964.87
2022-12-27T08:30:54.081Z,964.89
2022-12-27T08:31:54.009Z,964.90
2022-12-27T08:32:54.014Z,964.91
2022-12-27T08:33:58.408Z,964.93
2022-12-27T08:34:53.969Z,964.98
2022-12-27T08:35:54.962Z,964.97
2022-12-27T08:36:55.607Z,964.97
2022-12-27T08:37:53.941Z,965.04
2022-12-27T08:38:53.952Z,965.00
2022-12-27T08:39:57.790Z,965.06
2022-12-27T08:40:53.908Z,965.10
2022-12-27T08:41:53.886Z,965.08
2022-12-27T08:42:53.890Z,965.10
2022-12-27T08:43:53.872Z,965.13
2022-12-27T08:44:53.847Z,965.16
2022-12-27T08:45:53.843Z,965.22
2022-12-27T08:46:53.820Z,965.19
2022-12-27T08:47:53.841Z,965.20
2022-12-27T08:48:53.829Z,965.20
2022-12-27T08:49:53.804Z,965.21
2022-12-27T08:50:53.800Z,965.23
2022-12-27T08:51:53.735Z,965.26
2022-12-27T08:52:53.736Z,965.33
2022-12-27T08:53:53.735Z,965.36
2022-12-27T08:54:53.735Z,965.35
2022-12-27T08:55:53.695Z,965.35
2022-12-27T08:56:53.718Z,965.35
2022-12-27T08:57:53.671Z,965.33
2022-12-27T08:58:53.658Z,965.30
2022-12-27T08:59:53.634Z,965.32
2022-12-27T09:00:53.654Z,965.29
2022-12-27T09:01:53.690Z,965.33
2022-12-27T09:02:53.681Z,965.27
2022-12-27T09:03:53.629Z,965.25
2022-12-27T09:04:53.611Z,965.19
2022-12-27T09:05:53.578Z,965.20
2022-12-27T09:06:53.545Z,965.21
2022-12-27T09:07:53.531Z,965.26
2022-12-27T09:08:53.528Z,965.25
2022-12-27T09:09:53.531Z,965.28
2022-12-27T09:10:53.522Z,965.16
2022-12-27T09:11:53.516Z,965.19
2022-12-27T09:12:53.475Z,965.20
2022-12-27T09:13:53.443Z,965.21
2022-12-27T09:14:53.453Z,965.24
2022-12-27T09:15:53.473Z,965.27
2022-12-27T09:16:53.413Z,965.27
2022-12-27T09:17:53.441Z,965.26
2022-12-27T09:18:53.407Z,965.28
2022-12-27T09:19:53.395Z,965.29
2022-12-27T09:20:53.379Z,965.32
2022-12-27T09:21:53.363Z,965.38
2022-12-27T09:22:53.329Z,965.41
2022-12-27T09:23:53.323Z,965.40
2022-12-27T09:24:53.309Z,965.33
2022-12-27T09:25:53.326Z,965.27
2022-12-27T09:26:53.291Z,965.26
2022-12-27T09:27:53.273Z,965.27
2022-12-27T09:28:53.287Z,965.22
2022-12-27T09:29:53.260Z,965.21
2022-12-27T09:30:53.277Z,965.23
2022-12-27T09:31:53.253Z,965.18
2022-12-27T09:32:53.238Z,965.18
2022-12-27T09:33:53.227Z,965.20
2022-12-27T09:34:53.171Z,965.23
2022-12-27T09:35:53.194Z,965.26
2022-12-27T09:36:53.146Z,965.24
2022-12-27T09:37:53.170Z,965.26
2022-12-27T09:38:53.184Z,965.21
2022-12-27T09:39:53.131Z,965.24
2022-12-27T09:40:53.129Z,965.27
2022-12-27T09:43:09.521Z,965.24
2022-12-27T09:43:53.074Z,965.25
2022-12-27T09:44:53.072Z,965.28
2022-12-27T09:45:53.064Z,965.25
2022-12-27T09:46:53.015Z,965.25
2022-12-27T09:47:53.033Z,965.22
2022-12-27T09:48:52.986Z,965.19
2022-12-27T09:49:52.992Z,965.15
2022-12-27T09:50:53.000Z,965.13
2022-12-27T09:51:52.968Z,965.20
2022-12-27T09:52:52.950Z,965.13
2022-12-27T09:53:52.931Z,965.12
2022-12-27T09:54:52.937Z,965.13
2022-12-27T09:55:52.915Z,965.12
2022-12-27T09:57:18.925Z,965.15
2022-12-27T09:57:52.909Z,965.18
2022-12-27T09:58:52.854Z,965.23
2022-12-27T09:59:52.873Z,965.22
2022-12-27T10:00:52.870Z,965.24
2022-12-27T10:01:52.937Z,965.27
2022-12-27T10:02:52.841Z,965.30
2022-12-27T10:03:53.097Z,965.27
2022-12-27T10:05:22.804Z,965.28
2022-12-27T10:05:56.398Z,965.30
2022-12-27T10:06:52.738Z,965.27
2022-12-27T10:07:52.739Z,965.30
2022-12-27T10:08:52.727Z,965.30
2022-12-27T10:09:52.715Z,965.25
2022-12-27T10:10:52.714Z,965.26
2022-12-27T10:11:52.694Z,965.25
2022-12-27T10:12:52.670Z,965.23
2022-12-27T10:13:52.665Z,965.24
2022-12-27T10:14:52.639Z,965.23
2022-12-27T10:15:52.718Z,965.22
2022-12-27T10:16:52.640Z,965.20
2022-12-27T10:17:53.547Z,965.18
2022-12-27T10:18:52.583Z,965.17
2022-12-27T10:19:52.575Z,965.13
2022-12-27T10:20:52.585Z,965.15
2022-12-27T10:21:52.556Z,965.13
2022-12-27T10:22:52.561Z,965.11
2022-12-27T10:23:52.563Z,965.16
2022-12-27T10:24:52.524Z,965.11
2022-12-27T10:25:52.507Z,965.22
2022-12-27T10:26:52.475Z,965.21
2022-12-27T10:27:52.471Z,965.22
2022-12-27T10:28:56.828Z,965.19
2022-12-27T10:29:52.453Z,965.21
2022-12-27T10:30:52.488Z,965.21
2022-12-27T10:31:52.447Z,965.17
2022-12-27T10:32:52.394Z,965.11
2022-12-27T10:33:52.404Z,965.08
2022-12-27T10:34:52.397Z,965.05
2022-12-27T10:35:52.368Z,965.05
2022-12-27T10:36:52.354Z,965.00
2022-12-27T10:37:52.370Z,965.02
2022-12-27T10:38:52.318Z,965.01
2022-12-27T10:39:52.334Z,965.01
2022-12-27T10:40:52.308Z,965.00
2022-12-27T10:41:52.291Z,965.02
2022-12-27T10:42:52.294Z,965.00
2022-12-27T10:43:52.270Z,965.02
2022-12-27T10:44:52.269Z,964.99
2022-12-27T10:45:52.233Z,964.98
2022-12-27T10:46:52.282Z,965.01
2022-12-27T10:47:52.222Z,965.00
2022-12-27T10:49:19.550Z,964.99
2022-12-27T10:49:52.217Z,964.98
2022-12-27T10:50:52.183Z,965.01
2022-12-27T10:51:52.164Z,964.98
2022-12-27T10:52:57.335Z,965.02
2022-12-27T10:53:52.135Z,965.00
2022-12-27T10:54:52.113Z,965.02
2022-12-27T10:55:52.133Z,965.01
2022-12-27T10:56:52.077Z,965.00
2022-12-27T10:57:52.103Z,964.97
2022-12-27T10:58:58.530Z,965.04
2022-12-27T10:59:52.080Z,965.06
2022-12-27T11:00:52.079Z,965.01
2022-12-27T11:01:52.054Z,964.99
2022-12-27T11:02:52.105Z,964.98
2022-12-27T11:03:52.025Z,964.99
2022-12-27T11:04:52.001Z,964.96
2022-12-27T11:05:51.960Z,964.99
2022-12-27T11:06:52.002Z,964.98
2022-12-27T11:07:52.004Z,964.98
2022-12-27T11:08:51.948Z,964.98
2022-12-27T11:09:51.921Z,964.96
2022-12-27T11:10:51.920Z,964.95
2022-12-27T11:11:51.884Z,964.96
2022-12-27T11:12:51.866Z,964.98
2022-12-27T11:13:51.848Z,964.96
2022-12-27T11:14:51.870Z,964.95
2022-12-27T11:15:56.735Z,964.94
2022-12-27T11:16:51.847Z,964.90
2022-12-27T11:17:51.829Z,964.92
2022-12-27T11:18:51.781Z,964.94
2022-12-27T11:19:51.773Z,964.89
2022-12-27T11:20:51.775Z,964.90
2022-12-27T11:21:51.747Z,964.84
2022-12-27T11:22:51.726Z,964.86
2022-12-27T11:23:51.762Z,964.82
2022-12-27T11:24:51.736Z,964.77
2022-12-27T11:25:51.698Z,964.77
2022-12-27T11:26:53.961Z,964.69
2022-12-27T11:27:51.678Z,964.67
2022-12-27T11:28:51.645Z,964.72
2022-12-27T11:29:51.676Z,964.73
2022-12-27T11:30:51.652Z,964.73
2022-12-27T11:31:51.664Z,964.73
2022-12-27T11:32:51.615Z,964.67
2022-12-27T11:33:51.585Z,964.69
2022-12-27T11:34:51.580Z,964.69
2022-12-27T11:35:51.580Z,964.68
2022-12-27T11:36:51.545Z,964.64
2022-12-27T11:37:51.543Z,964.58
2022-12-27T11:38:51.515Z,964.59
2022-12-27T11:39:51.533Z,964.61
2022-12-27T11:40:51.541Z,964.58
2022-12-27T11:41:51.501Z,964.57
2022-12-27T11:42:51.455Z,964.58
2022-12-27T11:43:51.488Z,964.54
2022-12-27T11:44:52.602Z,964.51
2022-12-27T11:45:51.421Z,964.46
2022-12-27T11:46:56.998Z,964.49
2022-12-27T11:47:51.414Z,964.45
2022-12-27T11:48:51.366Z,964.40
2022-12-27T11:49:51.403Z,964.37
2022-12-27T11:50:51.383Z,964.39
2022-12-27T11:51:51.348Z,964.35
2022-12-27T11:52:51.327Z,964.38
2022-12-27T11:53:56.239Z,964.43
2022-12-27T11:54:51.325Z,964.47
2022-12-27T11:55:51.305Z,964.42
2022-12-27T11:56:51.310Z,964.47
2022-12-27T11:57:51.319Z,964.45
2022-12-27T11:58:51.264Z,964.44
2022-12-27T11:59:51.264Z,964.47
2022-12-27T12:00:51.220Z,964.46
2022-12-27T12:01:51.445Z,964.43
2022-12-27T12:02:51.372Z,964.44
2022-12-27T12:03:51.215Z,964.46
2022-12-27T12:04:51.164Z,964.47
2022-12-27T12:05:51.148Z,964.51
2022-12-27T12:06:51.159Z,964.51
2022-12-27T12:07:51.175Z,964.52
2022-12-27T12:08:51.134Z,964.50
2022-12-27T12:09:51.106Z,964.46
2022-12-27T12:10:51.087Z,964.47
2022-12-27T12:11:54.891Z,964.43
2022-12-27T12:12:51.049Z,964.45
2022-12-27T12:13:51.050Z,964.49
2022-12-27T12:14:51.041Z,964.50
2022-12-27T12:15:51.046Z,964.47
2022-12-27T12:16:51.047Z,964.44
2022-12-27T12:17:50.993Z,964.42
2022-12-27T12:18:50.974Z,964.39
2022-12-27T12:19:50.968Z,964.36
2022-12-27T12:20:51.315Z,964.31
2022-12-27T12:21:50.964Z,964.24
2022-12-27T12:22:50.920Z,964.24
2022-12-27T12:23:50.916Z,964.23
2022-12-27T12:24:50.896Z,964.28
2022-12-27T12:25:50.916Z,964.29
2022-12-27T12:26:55.709Z,964.29
2022-12-27T12:27:50.863Z,964.31
2022-12-27T12:28:59.611Z,964.32